Time;durP1;ratioP1;P1;durP2;ratioP2;P2;SDS_P1;SDS_P2;PMS_P1;PMS_P2;Temp;Humidity;BMP_temperature;BMP_pressure;BME280_temperature;BME280_humidity;BME280_pressure;Samples;Min_cycle;Max_cycle;Signal;HPM_P1;HPM_P2
2022/01/03 00:01:35;;;;;;;3.40;2.85;;;12.90;99.90;;;;;;4967617;28;20276;-50
2022/01/03 00:04:00;;;;;;;4.25;1.65;;;12.80;99.90;;;;;;4971779;28;20214;-51
2022/01/03 00:06:26;;;;;;;3.87;1.43;;;13.00;99.80;;;;;;4974213;28;20186;-51
2022/01/03 00:08:52;;;;;;;1.77;1.50;;;12.90;99.50;;;;;;4974475;28;20200;-50
2022/01/03 00:11:20;;;;;;;2.43;1.90;;;12.90;99.20;;;;;;4974729;28;20203;-52
2022/01/03 00:13:48;;;;;;;1.48;1.30;;;12.70;99.10;;;;;;4966348;28;20192;-52
2022/01/03 00:16:15;;;;;;;2.05;1.30;;;13.10;99.10;;;;;;4968576;28;20201;-51
2022/01/03 00:18:41;;;;;;;1.85;1.30;;;13.20;98.40;;;;;;4972238;28;20254;-51
2022/01/03 00:21:11;;;;;;;6.60;1.70;;;13.10;98.20;;;;;;4973883;28;20215;-52
2022/01/03 00:23:39;;;;;;;2.97;1.60;;;12.90;97.90;;;;;;4974968;28;20188;-51
2022/01/03 00:26:07;;;;;;;3.78;2.03;;;13.20;98.00;;;;;;4974966;28;20227;-52
2022/01/03 00:28:46;;;;;;;3.88;1.98;;;13.40;97.90;;;;;;4975390;28;20215;-51
2022/01/03 00:31:12;;;;;;;2.20;1.70;;;13.30;97.70;;;;;;4975048;28;20207;-51
2022/01/03 00:33:39;;;;;;;3.03;1.42;;;13.20;97.60;;;;;;4974922;28;20274;-51
2022/01/03 00:36:05;;;;;;;1.77;1.23;;;13.20;97.60;;;;;;4973410;28;20203;-50
2022/01/03 00:38:33;;;;;;;3.20;1.43;;;13.20;97.40;;;;;;4972977;28;20262;-50
2022/01/03 00:41:00;;;;;;;2.40;1.50;;;13.40;97.50;;;;;;4974123;28;20606;-50
2022/01/03 00:43:27;;;;;;;1.40;1.10;;;13.10;97.20;;;;;;4987891;28;20196;-51
2022/01/03 00:45:55;;;;;;;4.00;1.30;;;13.00;97.20;;;;;;4968096;28;20243;-51
2022/01/03 00:48:22;;;;;;;3.97;1.50;;;13.30;97.30;;;;;;4973654;28;20219;-52
2022/01/03 00:50:49;;;;;;;2.38;1.60;;;13.10;97.10;;;;;;4973845;28;20674;-52
2022/01/03 00:53:15;;;;;;;4.78;1.48;;;13.40;97.00;;;;;;4972478;28;20206;-51
2022/01/03 00:56:04;;;;;;;2.07;1.13;;;13.40;97.00;;;;;;4973840;28;20180;-51
2022/01/03 00:58:55;;;;;;;3.05;1.30;;;13.40;96.80;;;;;;4972679;28;21104;-51
2022/01/03 01:01:22;;;;;;;1.80;1.50;;;12.80;96.50;;;;;;4967230;28;20214;-52
2022/01/03 01:03:52;;;;;;;1.55;1.00;;;13.30;96.80;;;;;;4973389;28;20208;-52
2022/01/03 01:06:21;;;;;;;4.95;1.35;;;13.50;97.00;;;;;;4969255;28;20207;-52
2022/01/03 01:08:54;;;;;;;2.55;1.50;;;13.20;97.00;;;;;;4972993;28;20196;-52
2022/01/03 01:11:28;;;;;;;3.38;1.80;;;13.30;97.10;;;;;;4969754;28;20172;-52
2022/01/03 01:13:54;;;;;;;4.05;1.50;;;13.20;97.10;;;;;;4970198;28;20188;-52
2022/01/03 01:16:20;;;;;;;1.58;1.23;;;13.30;97.10;;;;;;4973359;28;20212;-52
2022/01/03 01:18:46;;;;;;;2.90;1.30;;;13.00;96.90;;;;;;4973088;28;20208;-52
2022/01/03 01:21:13;;;;;;;2.07;1.40;;;13.00;97.00;;;;;;4971547;28;20455;-52
2022/01/03 01:23:41;;;;;;;4.63;1.95;;;13.00;97.00;;;;;;4973435;28;20286;-52
2022/01/03 01:28:51;;;;;;;3.90;1.60;;;13.00;96.90;;;;;;4971043;28;20230;-52
2022/01/03 01:31:20;;;;;;;2.67;1.60;;;13.00;97.00;;;;;;4973568;28;20176;-52
2022/01/03 01:33:50;;;;;;;3.67;1.40;;;13.20;97.10;;;;;;4972465;28;20250;-52
2022/01/03 01:36:16;;;;;;;1.52;1.38;;;13.00;97.10;;;;;;4974319;28;20184;-51
2022/01/03 01:38:48;;;;;;;2.30;1.30;;;12.90;97.10;;;;;;4972990;28;20215;-51
2022/01/03 01:41:18;;;;;;;2.88;1.48;;;12.90;97.40;;;;;;4973716;28;20612;-52
2022/01/03 01:43:47;;;;;;;3.75;1.60;;;12.90;97.40;;;;;;4972096;28;20216;-51
2022/01/03 01:46:16;;;;;;;3.42;1.55;;;12.90;97.50;;;;;;4972951;28;20185;-52
2022/01/03 01:48:45;;;;;;;1.73;1.35;;;13.00;97.70;;;;;;4971086;28;20200;-51
2022/01/03 01:51:16;;;;;;;1.45;1.35;;;12.70;97.70;;;;;;4972048;28;20187;-52
2022/01/03 01:53:48;;;;;;;2.25;1.52;;;13.10;97.90;;;;;;4971818;28;20703;-52
2022/01/03 01:56:16;;;;;;;1.80;1.50;;;12.90;97.70;;;;;;4972133;28;20189;-52
2022/01/03 01:59:08;;;;;;;2.15;1.95;;;12.90;97.70;;;;;;4971657;28;20662;-51
2022/01/03 02:01:39;;;;;;;2.80;1.70;;;12.90;97.90;;;;;;4971084;28;20180;-52
2022/01/03 02:04:23;;;;;;;2.20;1.38;;;12.90;98.00;;;;;;4972258;28;20678;-52
2022/01/03 02:06:49;;;;;;;3.15;1.48;;;13.00;98.10;;;;;;4971863;28;20591;-51
2022/01/03 02:09:32;;;;;;;1.98;1.20;;;12.90;98.10;;;;;;4972287;28;20250;-51
2022/01/03 02:11:58;;;;;;;3.03;1.45;;;12.90;98.10;;;;;;4967945;28;20234;-51
2022/01/03 02:14:26;;;;;;;2.53;1.40;;;12.80;98.10;;;;;;4973161;28;20192;-51
2022/01/03 02:16:53;;;;;;;2.58;1.58;;;13.20;98.40;;;;;;4966611;28;20184;-51
2022/01/03 02:19:19;;;;;;;2.67;1.60;;;12.90;98.60;;;;;;4972232;28;20216;-51
2022/01/03 02:21:46;;;;;;;3.17;1.50;;;12.90;98.80;;;;;;4971354;28;20716;-51
2022/01/03 02:24:12;;;;;;;3.40;1.50;;;12.80;98.90;;;;;;4971830;28;20208;-52
2022/01/03 02:26:38;;;;;;;3.75;1.73;;;12.60;98.80;;;;;;4971806;28;20242;-52
2022/01/03 02:29:05;;;;;;;2.72;1.15;;;12.90;99.00;;;;;;4975346;28;20204;-51
2022/01/03 02:31:32;;;;;;;3.38;1.75;;;12.60;99.00;;;;;;4972539;28;20187;-52
2022/01/03 02:34:00;;;;;;;3.00;2.20;;;12.70;99.10;;;;;;4971925;28;20180;-52
2022/01/03 02:36:26;;;;;;;3.53;1.60;;;12.90;99.20;;;;;;4973100;28;20206;-52
2022/01/03 02:38:52;;;;;;;2.25;1.70;;;12.60;99.00;;;;;;4971505;28;20334;-52
2022/01/03 02:41:18;;;;;;;5.17;1.70;;;12.70;99.00;;;;;;4971774;28;20258;-51
2022/01/03 02:43:43;;;;;;;2.70;1.60;;;12.60;98.90;;;;;;4969480;28;20262;-51
2022/01/03 02:46:09;;;;;;;1.17;1.07;;;12.80;99.00;;;;;;4969641;28;20242;-52
2022/01/03 02:48:35;;;;;;;2.45;1.35;;;12.80;99.20;;;;;;4973205;28;20203;-52
2022/01/03 02:51:01;;;;;;;4.03;1.40;;;12.80;99.20;;;;;;4967946;28;20604;-52
2022/01/03 02:53:27;;;;;;;5.40;2.23;;;12.80;99.20;;;;;;4975120;28;20187;-51
2022/01/03 02:55:53;;;;;;;2.33;1.63;;;12.70;99.20;;;;;;4973517;28;20239;-52
2022/01/03 02:58:18;;;;;;;2.90;1.20;;;12.60;99.10;;;;;;4975513;28;20184;-51
2022/01/03 03:00:48;;;;;;;3.43;1.40;;;12.90;99.30;;;;;;4970268;28;20188;-52
2022/01/03 03:03:18;;;;;;;3.45;1.77;;;12.60;99.20;;;;;;4965063;28;20188;-51
2022/01/03 03:05:45;;;;;;;1.20;1.10;;;12.70;99.40;;;;;;4978612;28;20211;-51
2022/01/03 03:08:11;;;;;;;2.55;1.50;;;12.70;99.30;;;;;;4975901;28;20758;-52
2022/01/03 03:10:38;;;;;;;1.83;1.20;;;12.70;99.30;;;;;;4974893;28;20230;-51
2022/01/03 03:13:04;;;;;;;3.55;1.55;;;12.70;99.40;;;;;;4966664;28;20208;-51
2022/01/03 03:15:30;;;;;;;3.80;1.50;;;12.40;99.30;;;;;;4976809;28;20205;-51
2022/01/03 03:17:56;;;;;;;3.88;1.65;;;12.50;99.40;;;;;;4970587;28;20191;-51
2022/01/03 03:20:27;;;;;;;3.37;1.30;;;12.60;99.90;;;;;;4970832;28;20209;-51
2022/01/03 03:22:53;;;;;;;3.28;1.55;;;12.30;99.40;;;;;;4971637;28;20466;-52
2022/01/03 03:25:25;;;;;;;2.30;1.27;;;12.50;99.50;;;;;;4971312;28;20247;-51
2022/01/03 03:27:53;;;;;;;2.13;1.42;;;12.40;99.70;;;;;;4971779;28;20193;-52
2022/01/03 03:30:30;;;;;;;3.03;1.63;;;12.40;99.60;;;;;;4968104;28;20206;-52
2022/01/03 03:33:17;;;;;;;2.22;1.83;;;12.40;99.90;;;;;;4974577;28;20211;-52
2022/01/03 03:35:45;;;;;;;4.20;1.42;;;12.10;99.60;;;;;;4976127;28;20236;-52
2022/01/03 03:38:11;;;;;;;4.22;1.80;;;12.30;99.70;;;;;;4972908;28;20187;-51
2022/01/03 03:40:37;;;;;;;3.15;1.00;;;12.10;99.80;;;;;;4975224;28;20310;-52
2022/01/03 03:43:03;;;;;;;4.10;1.27;;;12.10;99.80;;;;;;4979727;28;20195;-52
2022/01/03 03:45:28;;;;;;;3.38;1.40;;;12.00;99.90;;;;;;4978454;28;20228;-51
2022/01/03 03:47:57;;;;;;;1.70;1.10;;;12.10;99.80;;;;;;4980582;28;20257;-51
2022/01/03 03:50:23;;;;;;;1.80;1.17;;;12.20;99.90;;;;;;4973296;28;20294;-51
2022/01/03 03:52:49;;;;;;;1.08;0.90;;;12.20;99.80;;;;;;4982199;28;20273;-52
2022/01/03 03:55:14;;;;;;;4.60;1.13;;;11.90;99.40;;;;;;4980574;28;20275;-51
2022/01/03 03:57:40;;;;;;;4.83;1.30;;;12.00;99.20;;;;;;4981620;28;20466;-51
2022/01/03 04:00:12;;;;;;;2.37;1.50;;;12.20;99.30;;;;;;4977879;28;20275;-52
2022/01/03 04:02:38;;;;;;;2.67;1.30;;;11.90;99.10;;;;;;4975073;28;20278;-51
2022/01/03 04:05:04;;;;;;;3.47;1.33;;;12.10;99.10;;;;;;4974412;28;20641;-51
2022/01/03 04:07:30;;;;;;;5.57;2.05;;;11.70;98.60;;;;;;4973320;28;20657;-51
2022/01/03 04:09:56;;;;;;;3.07;0.90;;;12.10;98.60;;;;;;4974597;28;20211;-52
2022/01/03 04:12:22;;;;;;;1.63;1.10;;;12.00;98.60;;;;;;4974741;28;20604;-51
2022/01/03 04:14:47;;;;;;;6.20;1.50;;;11.80;98.50;;;;;;4974324;28;20232;-52
2022/01/03 04:17:14;;;;;;;1.67;1.03;;;11.80;98.60;;;;;;4971153;28;20879;-52
2022/01/03 04:19:39;;;;;;;2.15;1.13;;;11.80;98.80;;;;;;4976955;28;20269;-52
2022/01/03 04:22:05;;;;;;;5.63;1.40;;;12.10;98.60;;;;;;4979299;28;20210;-52
2022/01/03 04:24:31;;;;;;;2.10;1.20;;;11.90;98.50;;;;;;4979100;28;20750;-51
2022/01/03 04:26:56;;;;;;;3.70;1.47;;;12.10;98.70;;;;;;4978318;28;20179;-51
2022/01/03 04:29:22;;;;;;;2.63;1.10;;;11.80;98.60;;;;;;4979450;28;20286;-51
2022/01/03 04:31:48;;;;;;;7.37;1.60;;;12.00;98.50;;;;;;4972645;28;20270;-52
2022/01/03 04:34:13;;;;;;;4.40;1.70;;;12.10;98.50;;;;;;4980740;28;20193;-52
2022/01/03 04:36:40;;;;;;;4.43;1.97;;;11.40;98.40;;;;;;4974004;28;20360;-49
2022/01/03 04:39:06;;;;;;;5.95;1.73;;;11.70;98.60;;;;;;4977274;28;20238;-50
2022/01/03 04:41:33;;;;;;;6.25;1.80;;;12.00;98.90;;;;;;4975391;28;20188;-52
2022/01/03 04:44:00;;;;;;;3.92;1.38;;;12.00;98.90;;;;;;4976998;28;20216;-50
2022/01/03 04:46:25;;;;;;;2.65;1.20;;;12.00;98.80;;;;;;4977756;28;20197;-53
2022/01/03 04:48:51;;;;;;;4.00;1.50;;;12.00;99.00;;;;;;4965116;28;20208;-50
2022/01/03 04:51:17;;;;;;;2.00;1.53;;;12.20;99.20;;;;;;4974774;28;20455;-50
2022/01/03 04:53:43;;;;;;;4.90;1.87;;;12.30;99.60;;;;;;4974534;28;20184;-50
2022/01/03 04:56:13;;;;;;;2.83;1.43;;;12.10;99.50;;;;;;4973615;28;20271;-51
2022/01/03 04:58:40;;;;;;;1.85;1.42;;;12.30;99.90;;;;;;4974053;28;20693;-51
2022/01/03 05:01:06;;;;;;;3.38;1.55;;;12.40;99.90;;;;;;4971566;28;20183;-51
2022/01/03 05:03:32;;;;;;;3.75;1.45;;;12.40;99.90;;;;;;4971530;28;20234;-51
2022/01/03 05:05:58;;;;;;;5.35;2.92;;;12.40;99.90;;;;;;4973819;28;20218;-50
2022/01/03 05:08:24;;;;;;;2.47;1.70;;;12.40;99.90;;;;;;4977178;28;20665;-50
2022/01/03 05:10:49;;;;;;;5.32;2.45;;;12.30;99.90;;;;;;4969523;28;20816;-51
2022/01/03 05:13:15;;;;;;;2.80;2.17;;;12.30;99.90;;;;;;4974128;28;20185;-50
2022/01/03 05:15:41;;;;;;;4.10;2.30;;;12.30;99.90;;;;;;4973393;28;20192;-51
2022/01/03 05:18:06;;;;;;;2.70;1.57;;;12.10;99.90;;;;;;4980886;28;20253;-50
2022/01/03 05:20:32;;;;;;;3.93;1.90;;;12.20;99.90;;;;;;4976561;28;20672;-51
2022/01/03 05:22:58;;;;;;;3.23;1.47;;;12.00;99.90;;;;;;4975513;28;20610;-51
2022/01/03 05:25:24;;;;;;;3.23;1.73;;;12.00;99.90;;;;;;4970798;28;20211;-51
2022/01/03 05:27:49;;;;;;;4.00;1.40;;;11.80;99.90;;;;;;4976642;28;20546;-50
2022/01/03 05:30:15;;;;;;;1.80;1.23;;;11.80;99.90;;;;;;4977264;28;20234;-51
2022/01/03 05:32:41;;;;;;;4.22;1.45;;;12.10;99.90;;;;;;4976573;28;20243;-51
2022/01/03 05:35:07;;;;;;;4.30;1.40;;;11.90;99.90;;;;;;4973125;28;20184;-51
2022/01/03 05:37:33;;;;;;;7.05;2.63;;;11.70;99.90;;;;;;4974477;28;20734;-50
2022/01/03 05:39:58;;;;;;;3.20;1.67;;;11.90;99.90;;;;;;4973414;28;20211;-52
2022/01/03 05:42:24;;;;;;;2.83;1.80;;;11.90;99.90;;;;;;4971912;28;20195;-50
2022/01/03 05:44:50;;;;;;;6.43;2.40;;;11.70;99.90;;;;;;4972699;28;20726;-50
2022/01/03 05:47:15;;;;;;;3.40;1.80;;;11.80;99.90;;;;;;4972316;28;20226;-50
2022/01/03 05:49:41;;;;;;;2.77;1.57;;;11.80;99.90;;;;;;4972695;28;20207;-53
2022/01/03 05:52:07;;;;;;;1.90;1.70;;;11.70;99.90;;;;;;4972635;28;20213;-51
2022/01/03 05:54:32;;;;;;;3.93;2.10;;;11.80;99.90;;;;;;4971687;28;20528;-51
2022/01/03 05:56:58;;;;;;;6.77;2.27;;;11.70;99.90;;;;;;4971532;28;20311;-51
2022/01/03 05:59:24;;;;;;;6.50;2.30;;;11.60;99.90;;;;;;4972368;28;20213;-51
2022/01/03 06:01:51;;;;;;;3.63;1.50;;;11.50;99.90;;;;;;4971327;28;20717;-52
2022/01/03 06:04:22;;;;;;;4.63;1.50;;;11.40;99.90;;;;;;4972331;28;20622;-51
2022/01/03 06:07:05;;;;;;;2.58;1.48;;;11.70;99.90;;;;;;4971847;28;20672;-52
2022/01/03 06:09:31;;;;;;;3.35;1.33;;;11.40;99.90;;;;;;4972087;28;20206;-51
2022/01/03 06:11:58;;;;;;;3.50;1.70;;;11.60;99.90;;;;;;4970680;28;20311;-51
2022/01/03 06:14:24;;;;;;;5.95;1.77;;;11.20;99.90;;;;;;4972135;28;20558;-51
2022/01/03 06:16:51;;;;;;;6.35;1.90;;;11.40;99.90;;;;;;4971625;28;20185;-52
2022/01/03 06:19:17;;;;;;;4.82;2.08;;;11.30;99.90;;;;;;4969299;28;20224;-51
2022/01/03 06:21:43;;;;;;;3.05;1.70;;;11.60;99.90;;;;;;4971143;28;20286;-51
2022/01/03 06:24:10;;;;;;;5.13;2.13;;;11.30;99.90;;;;;;4966052;28;21475;-50
2022/01/03 06:26:37;;;;;;;6.07;3.10;;;11.40;99.90;;;;;;4968340;28;20552;-50
2022/01/03 06:29:04;;;;;;;5.05;2.60;;;11.40;99.90;;;;;;4967635;28;20210;-51
2022/01/03 06:31:31;;;;;;;4.75;2.10;;;11.10;99.90;;;;;;4971990;28;20589;-50
2022/01/03 06:33:57;;;;;;;4.25;2.00;;;11.20;99.90;;;;;;4969726;28;20180;-51
2022/01/03 06:36:22;;;;;;;4.93;2.53;;;11.40;99.90;;;;;;4970043;28;20245;-51
2022/01/03 06:38:48;;;;;;;6.17;3.13;;;11.10;99.90;;;;;;4967350;28;20221;-52
2022/01/03 06:41:14;;;;;;;4.80;1.93;;;11.30;99.90;;;;;;4967144;28;20878;-51
2022/01/03 06:43:39;;;;;;;3.57;2.33;;;11.40;99.90;;;;;;4965250;28;20253;-51
2022/01/03 06:46:05;;;;;;;5.83;2.63;;;11.40;99.90;;;;;;4970157;28;20219;-50
2022/01/03 06:48:31;;;;;;;4.20;2.40;;;11.30;99.90;;;;;;4967566;28;20685;-50
2022/01/03 06:50:56;;;;;;;8.67;2.80;;;11.30;99.90;;;;;;4971474;28;20882;-50
2022/01/03 06:53:22;;;;;;;2.43;2.20;;;11.40;99.90;;;;;;4971313;28;20197;-49
2022/01/03 06:55:48;;;;;;;4.83;2.00;;;11.10;99.90;;;;;;4971076;28;20189;-51
2022/01/03 06:58:13;;;;;;;2.67;1.90;;;11.20;99.90;;;;;;4979385;28;20611;-51
2022/01/03 07:00:39;;;;;;;3.23;1.53;;;11.30;99.90;;;;;;4966557;28;20224;-51
2022/01/03 07:03:05;;;;;;;4.07;2.10;;;11.20;99.90;;;;;;4967119;28;20194;-50
2022/01/03 07:05:30;;;;;;;2.37;2.00;;;11.10;99.90;;;;;;4971713;28;20218;-50
2022/01/03 07:07:56;;;;;;;4.50;2.40;;;11.10;99.90;;;;;;4968945;28;20643;-50
2022/01/03 07:10:22;;;;;;;5.23;2.57;;;11.20;99.90;;;;;;4969577;28;20574;-50
2022/01/03 07:12:52;;;;;;;3.50;2.60;;;11.10;99.90;;;;;;4971930;28;20216;-50
2022/01/03 07:21:04;;;;;;;7.65;2.63;;;10.80;99.90;;;;;;4933282;29;20273;-52
2022/01/03 07:23:30;;;;;;;10.87;3.50;;;10.90;99.90;;;;;;4966248;28;20289;-52
2022/01/03 07:25:55;;;;;;;8.33;2.67;;;10.70;99.90;;;;;;4972288;28;20525;-52
2022/01/03 07:28:21;;;;;;;8.43;3.20;;;10.80;99.90;;;;;;4968802;28;20197;-52
2022/01/03 07:30:47;;;;;;;3.67;1.80;;;10.70;99.90;;;;;;4968179;28;20186;-52
2022/01/03 07:33:13;;;;;;;3.67;1.60;;;10.70;99.90;;;;;;4964843;28;20193;-52
2022/01/03 07:35:38;;;;;;;4.07;2.90;;;10.30;99.90;;;;;;4972607;28;20320;-52
2022/01/03 07:38:04;;;;;;;7.10;3.07;;;10.90;99.90;;;;;;4975309;28;20502;-52
2022/01/03 07:40:31;;;;;;;6.45;2.50;;;10.50;99.90;;;;;;4973800;28;20188;-53
2022/01/03 07:42:58;;;;;;;4.45;2.55;;;10.50;99.90;;;;;;4975374;28;20200;-54
2022/01/03 07:45:24;;;;;;;4.95;2.15;;;10.40;99.90;;;;;;4971575;28;20212;-53
2022/01/03 07:47:50;;;;;;;2.95;1.85;;;10.70;99.90;;;;;;4971876;28;20273;-54
2022/01/03 07:50:16;;;;;;;4.97;2.33;;;10.30;99.90;;;;;;4970598;28;20283;-54
2022/01/03 07:52:42;;;;;;;5.70;3.50;;;10.50;99.90;;;;;;4973103;28;20635;-53
2022/01/03 07:55:10;;;;;;;3.78;2.60;;;10.40;99.90;;;;;;4971973;28;20186;-53
2022/01/03 07:57:36;;;;;;;4.63;2.80;;;10.30;99.90;;;;;;4975451;28;20184;-53
2022/01/03 08:00:08;;;;;;;7.17;3.20;;;10.70;99.90;;;;;;4968931;28;20221;-53
2022/01/03 08:02:34;;;;;;;6.18;2.83;;;10.50;99.90;;;;;;4968029;28;20452;-54
2022/01/03 08:04:59;;;;;;;11.87;3.40;;;10.60;99.90;;;;;;4970234;28;20223;-52
2022/01/03 08:07:25;;;;;;;7.90;2.40;;;10.50;99.90;;;;;;4967886;28;20444;-52
2022/01/03 08:09:51;;;;;;;6.93;2.27;;;10.50;99.90;;;;;;4969349;28;20227;-54
2022/01/03 08:12:17;;;;;;;10.53;4.20;;;10.20;99.90;;;;;;4972490;28;20451;-53
2022/01/03 08:14:44;;;;;;;4.57;2.08;;;10.00;99.90;;;;;;4972219;28;20217;-53
2022/01/03 08:17:10;;;;;;;2.58;2.00;;;10.60;99.90;;;;;;4972045;28;20195;-53
2022/01/03 08:19:35;;;;;;;4.63;2.20;;;10.70;99.90;;;;;;4971769;28;20215;-54
2022/01/03 08:22:01;;;;;;;4.37;2.30;;;10.70;99.90;;;;;;4970662;28;20202;-53
2022/01/03 08:24:27;;;;;;;5.40;2.70;;;10.50;99.90;;;;;;4965190;28;21163;-54
2022/01/03 08:26:53;;;;;;;5.97;2.47;;;10.70;99.90;;;;;;4969868;28;20433;-51
2022/01/03 08:29:18;;;;;;;5.33;2.60;;;10.80;99.90;;;;;;4976041;28;20205;-53
2022/01/03 08:31:44;;;;;;;9.63;4.47;;;10.60;99.90;;;;;;4972239;28;20501;-52
2022/01/03 08:34:10;;;;;;;9.77;4.17;;;10.70;99.90;;;;;;4969559;28;20185;-53
2022/01/03 08:36:35;;;;;;;5.83;2.90;;;10.60;99.90;;;;;;4972342;28;20486;-54
2022/01/03 08:39:02;;;;;;;7.73;3.30;;;10.80;99.90;;;;;;4972221;28;20208;-55
2022/01/03 08:41:28;;;;;;;6.47;3.38;;;10.80;99.90;;;;;;4973066;28;20199;-55
2022/01/03 08:43:54;;;;;;;7.17;2.63;;;10.70;99.90;;;;;;4973191;28;20276;-55
2022/01/03 08:46:19;;;;;;;9.00;5.03;;;11.10;99.90;;;;;;4973385;28;20292;-54
2022/01/03 08:48:45;;;;;;;5.47;2.70;;;11.20;99.90;;;;;;4986166;28;20573;-53
2022/01/03 08:51:11;;;;;;;5.90;4.50;;;11.10;99.90;;;;;;4972537;28;20178;-54
2022/01/03 08:53:37;;;;;;;6.53;2.87;;;11.00;99.90;;;;;;4970759;28;20205;-52
2022/01/03 08:56:04;;;;;;;5.20;2.35;;;11.10;99.90;;;;;;4972167;28;20250;-53
2022/01/03 08:58:30;;;;;;;4.57;3.30;;;11.20;99.90;;;;;;4973163;28;20256;-53
2022/01/03 09:00:56;;;;;;;9.77;3.97;;;11.40;99.90;;;;;;4966886;28;20189;-53
2022/01/03 09:03:22;;;;;;;9.23;3.92;;;11.40;99.90;;;;;;4973204;28;20321;-56
2022/01/03 09:05:49;;;;;;;7.47;2.65;;;11.50;99.90;;;;;;4966781;28;20663;-54
2022/01/03 09:08:16;;;;;;;6.10;3.20;;;11.80;99.90;;;;;;4971645;28;20238;-54
2022/01/03 09:10:42;;;;;;;6.47;2.90;;;11.80;99.90;;;;;;4965882;28;20311;-55
2022/01/03 09:13:08;;;;;;;8.93;3.23;;;11.40;99.90;;;;;;4976525;28;20273;-54
2022/01/03 09:15:34;;;;;;;5.90;2.93;;;12.00;99.90;;;;;;4964582;28;20191;-54
2022/01/03 09:17:59;;;;;;;4.97;3.00;;;12.00;99.90;;;;;;4972620;28;20323;-53
2022/01/03 09:20:25;;;;;;;5.10;3.60;;;12.10;99.90;;;;;;4973288;28;20630;-53
2022/01/03 09:22:54;;;;;;;6.63;3.30;;;12.00;99.90;;;;;;4966635;28;20216;-54
2022/01/03 09:30:46;;;;;;;5.90;2.83;;;12.60;99.90;;;;;;4971849;28;20557;-54
2022/01/03 09:33:12;;;;;;;3.33;2.50;;;12.30;99.90;;;;;;4970591;28;20176;-54
2022/01/03 09:35:38;;;;;;;3.65;2.08;;;12.40;99.90;;;;;;4965976;28;20194;-56
2022/01/03 09:38:04;;;;;;;2.42;1.77;;;12.30;99.90;;;;;;4969653;28;20195;-57
2022/01/03 09:40:31;;;;;;;4.43;2.20;;;12.60;99.90;;;;;;4981706;28;20256;-57
2022/01/03 09:42:58;;;;;;;5.75;2.45;;;12.80;99.90;;;;;;4968909;28;20669;-56
2022/01/03 09:45:27;;;;;;;5.05;1.75;;;12.90;99.90;;;;;;4968395;28;20242;-56
2022/01/03 09:47:55;;;;;;;3.58;1.40;;;12.80;99.90;;;;;;4970667;28;20180;-55
2022/01/03 09:50:22;;;;;;;4.25;2.00;;;12.70;99.90;;;;;;4982787;23;20196;-59
2022/01/03 09:52:49;;;;;;;4.28;2.97;;;12.80;99.90;;;;;;4999705;28;20207;-58
2022/01/03 09:55:18;;;;;;;6.47;1.95;;;12.90;99.90;;;;;;5002024;28;20667;-59
2022/01/03 09:57:45;;;;;;;2.95;1.30;;;12.90;99.90;;;;;;4999759;28;20701;-56
2022/01/03 10:00:16;;;;;;;3.38;1.42;;;12.40;99.90;;;;;;5003627;28;20194;-56
2022/01/03 10:02:46;;;;;;;3.75;1.73;;;12.70;99.90;;;;;;5001992;28;20195;-56
2022/01/03 10:05:12;;;;;;;3.35;1.70;;;12.80;99.90;;;;;;5003342;28;20260;-57
2022/01/03 10:07:42;;;;;;;3.35;2.22;;;12.70;99.90;;;;;;5002757;28;20193;-58
2022/01/03 10:10:12;;;;;;;3.40;1.50;;;12.90;99.90;;;;;;5004345;28;20290;-57
2022/01/03 10:12:38;;;;;;;6.22;2.00;;;12.80;99.90;;;;;;5004916;28;20187;-57
2022/01/03 10:15:08;;;;;;;3.13;1.40;;;13.00;99.90;;;;;;5006554;28;20183;-57
2022/01/03 10:17:42;;;;;;;4.18;1.60;;;12.80;99.90;;;;;;5003265;28;20184;-57
2022/01/03 10:20:10;;;;;;;4.28;1.90;;;13.00;99.90;;;;;;5001411;28;20211;-57
2022/01/03 10:22:38;;;;;;;2.53;1.48;;;13.20;99.90;;;;;;5003631;28;20609;-57
2022/01/03 10:25:12;;;;;;;4.45;1.83;;;13.00;99.90;;;;;;5006731;28;20705;-57
2022/01/03 10:27:51;;;;;;;4.55;1.92;;;12.90;99.90;;;;;;5006164;28;20190;-57
2022/01/03 10:30:32;;;;;;;4.65;1.80;;;13.20;99.90;;;;;;5003338;28;20206;-58
2022/01/03 10:32:58;;;;;;;2.60;1.40;;;12.80;99.90;;;;;;5006380;28;20249;-59
2022/01/03 10:35:24;;;;;;;2.33;1.50;;;13.00;99.90;;;;;;5005445;28;20663;-58
2022/01/03 10:37:50;;;;;;;4.93;1.88;;;13.00;99.90;;;;;;5008401;28;20429;-58
2022/01/03 10:40:29;;;;;;;3.50;1.67;;;13.20;99.90;;;;;;5010192;28;20194;-58
2022/01/03 10:42:56;;;;;;;4.00;1.80;;;13.10;99.90;;;;;;5003480;28;20671;-58
2022/01/03 10:45:33;;;;;;;3.72;2.25;;;13.20;99.90;;;;;;5010386;28;20217;-58
2022/01/03 10:48:00;;;;;;;2.75;1.48;;;13.10;99.90;;;;;;4997415;28;20187;-57
2022/01/03 10:50:28;;;;;;;4.15;1.73;;;12.90;99.90;;;;;;5006662;28;20635;-58
2022/01/03 10:52:54;;;;;;;5.75;2.97;;;13.00;99.90;;;;;;5004432;28;20183;-57
2022/01/03 10:55:23;;;;;;;3.35;1.40;;;12.70;99.90;;;;;;5004782;28;20244;-58
2022/01/03 10:57:58;;;;;;;3.58;1.75;;;13.00;99.90;;;;;;5002660;28;20264;-58
2022/01/03 11:00:28;;;;;;;3.03;2.33;;;12.80;99.90;;;;;;5004526;28;20213;-58
2022/01/03 11:03:15;;;;;;;2.75;1.25;;;13.00;99.90;;;;;;5007973;28;20260;-57
2022/01/03 11:05:46;;;;;;;4.38;1.73;;;13.30;99.90;;;;;;5002238;28;20207;-57
2022/01/03 11:10:58;;;;;;;3.95;1.50;;;13.10;99.90;;;;;;5008450;28;20861;-58
2022/01/03 11:13:24;;;;;;;6.95;1.48;;;13.50;99.90;;;;;;5009045;28;20446;-58
2022/01/03 11:15:50;;;;;;;3.10;1.80;;;13.30;99.90;;;;;;5003508;28;20644;-58
2022/01/03 11:18:17;;;;;;;4.43;1.90;;;13.30;99.90;;;;;;5009823;28;20446;-57
2022/01/03 11:20:47;;;;;;;3.85;2.20;;;13.30;99.90;;;;;;5004993;28;20522;-58
2022/01/03 11:23:21;;;;;;;5.93;1.63;;;13.30;99.90;;;;;;5002270;28;20569;-58
2022/01/03 11:25:47;;;;;;;4.63;1.40;;;13.40;99.90;;;;;;5003583;28;20256;-58
2022/01/03 11:28:13;;;;;;;3.50;1.70;;;13.60;99.90;;;;;;5003260;28;20601;-58
2022/01/03 11:30:40;;;;;;;3.70;1.60;;;13.80;99.90;;;;;;5004627;28;20214;-57
2022/01/03 11:33:09;;;;;;;4.32;1.70;;;13.90;99.90;;;;;;5004469;28;20187;-57
2022/01/03 11:35:36;;;;;;;4.55;1.70;;;13.70;99.50;;;;;;5005877;28;20190;-57
2022/01/03 11:38:02;;;;;;;1.75;1.20;;;13.90;99.90;;;;;;5000822;28;20760;-57
2022/01/03 11:40:28;;;;;;;5.30;2.08;;;13.70;99.30;;;;;;5008410;28;20661;-58
2022/01/03 11:42:54;;;;;;;4.95;1.65;;;13.80;99.30;;;;;;5001209;28;20185;-55
2022/01/03 11:45:20;;;;;;;5.63;1.50;;;13.90;99.30;;;;;;5006872;28;20202;-57
2022/01/03 11:47:47;;;;;;;4.00;1.63;;;13.80;98.80;;;;;;5006301;28;20175;-56
2022/01/03 11:50:13;;;;;;;4.45;2.30;;;13.90;98.70;;;;;;5006906;28;20472;-56
2022/01/03 11:52:42;;;;;;;4.03;1.97;;;14.00;98.90;;;;;;5009819;28;20203;-55
2022/01/03 11:55:09;;;;;;;2.97;1.90;;;13.90;98.80;;;;;;5013113;28;20197;-56
2022/01/03 11:58:11;;;;;;;4.10;1.70;;;13.70;98.10;;;;;;5003574;28;20192;-55
2022/01/03 12:03:37;;;;;;;3.20;1.20;;;13.80;97.10;;;;;;5001320;28;20666;-56
2022/01/03 12:06:08;;;;;;;3.80;1.95;;;13.70;96.50;;;;;;5009632;28;20361;-54
2022/01/03 12:08:35;;;;;;;6.00;1.63;;;13.70;96.60;;;;;;5007872;28;20297;-57
2022/01/03 12:11:17;;;;;;;2.67;1.23;;;13.60;96.40;;;;;;5013754;28;20702;-56
2022/01/03 12:13:55;;;;;;;2.15;1.17;;;13.70;95.60;;;;;;5009390;28;20289;-55
2022/01/03 12:16:42;;;;;;;2.15;1.10;;;13.40;95.50;;;;;;5010183;28;20252;-56
2022/01/03 12:19:12;;;;;;;2.25;1.30;;;13.70;95.50;;;;;;5013203;28;20198;-55
2022/01/03 12:21:47;;;;;;;3.40;1.05;;;13.50;95.00;;;;;;5005353;28;20184;-57
2022/01/03 12:24:28;;;;;;;3.10;2.80;;;13.00;95.00;;;;;;5007460;28;20218;-58
2022/01/03 12:27:09;;;;;;;1.80;1.20;;;13.40;95.40;;;;;;5006648;28;20265;-56
2022/01/03 12:29:58;;;;;;;3.25;1.02;;;13.50;95.70;;;;;;5009555;28;20210;-55
2022/01/03 12:32:25;;;;;;;1.90;1.00;;;13.50;95.60;;;;;;5003610;28;20179;-54
2022/01/03 12:35:10;;;;;;;3.13;2.17;;;13.50;96.10;;;;;;5013718;28;20186;-57
2022/01/03 12:37:43;;;;;;;3.22;1.13;;;13.50;96.00;;;;;;5007779;28;20188;-58
2022/01/03 12:40:12;;;;;;;1.60;1.13;;;13.50;95.70;;;;;;5012951;28;20286;-56
2022/01/03 12:42:53;;;;;;;4.28;1.80;;;13.60;96.00;;;;;;5011931;28;20210;-57
2022/01/03 12:45:32;;;;;;;2.92;1.48;;;13.30;96.20;;;;;;5001269;28;20211;-55
2022/01/03 12:48:15;;;;;;;2.10;1.45;;;13.60;96.20;;;;;;5009562;28;20681;-55
2022/01/03 12:50:52;;;;;;;3.72;1.20;;;13.60;95.90;;;;;;5004504;28;22382;-57
2022/01/03 12:53:26;;;;;;;3.97;1.58;;;13.70;96.10;;;;;;5001495;28;20241;-56
2022/01/03 12:55:54;;;;;;;2.67;1.50;;;13.60;96.20;;;;;;5012753;28;20352;-55
2022/01/03 12:58:20;;;;;;;2.08;1.52;;;13.50;96.20;;;;;;5009402;28;20183;-56
2022/01/03 13:01:05;;;;;;;1.53;1.37;;;13.60;96.30;;;;;;5004818;28;20195;-56
2022/01/03 13:03:41;;;;;;;3.17;1.50;;;13.50;96.30;;;;;;5004596;28;20222;-56
2022/01/03 13:06:15;;;;;;;3.30;1.30;;;13.30;96.20;;;;;;4997262;28;20211;-55
2022/01/03 13:08:59;;;;;;;3.42;1.70;;;13.50;96.50;;;;;;4996053;28;20830;-56
2022/01/03 13:11:32;;;;;;;4.13;1.70;;;13.70;96.50;;;;;;5005274;28;20186;-55